createdAt,value
2022-10-17T00:15:31.439Z,3.90
2022-10-17T00:18:01.539Z,3.83
2022-10-17T00:20:30.610Z,3.50
2022-10-17T00:22:59.038Z,3.58
2022-10-17T00:25:27.297Z,3.83
2022-10-17T00:27:55.543Z,3.95
2022-10-17T00:30:24.009Z,3.75
2022-10-17T00:32:52.360Z,3.92
2022-10-17T00:35:22.136Z,3.90
2022-10-17T00:37:50.454Z,3.70
2022-10-17T00:40:18.878Z,3.72
2022-10-17T00:42:48.423Z,3.83
2022-10-17T00:45:22.445Z,3.40
2022-10-17T00:47:55.799Z,3.72
2022-10-17T00:50:27.451Z,3.67
2022-10-17T00:53:00.630Z,3.60
2022-10-17T00:55:32.548Z,3.40
2022-10-17T00:58:03.209Z,3.60
2022-10-17T01:00:32.144Z,3.90
2022-10-17T01:03:01.062Z,4.55
2022-10-17T01:05:31.292Z,3.63
2022-10-17T01:07:59.843Z,3.85
2022-10-17T01:10:34.395Z,3.58
2022-10-17T01:13:12.856Z,3.58
2022-10-17T01:16:00.090Z,3.50
2022-10-17T01:18:39.602Z,3.92
2022-10-17T01:21:28.504Z,4.47
2022-10-17T01:24:38.075Z,3.70
2022-10-17T01:27:28.869Z,3.55
2022-10-17T01:30:36.730Z,3.42
2022-10-17T01:33:13.799Z,4.00
2022-10-17T01:35:49.135Z,3.72
2022-10-17T01:38:24.795Z,3.50
2022-10-17T01:41:01.625Z,4.18
2022-10-17T01:43:35.570Z,3.90
2022-10-17T01:46:11.945Z,3.85
2022-10-17T01:48:46.214Z,3.85
2022-10-17T01:51:19.451Z,3.88
2022-10-17T01:53:54.604Z,3.58
2022-10-17T01:56:25.620Z,3.63
2022-10-17T01:58:59.840Z,3.30
2022-10-17T02:01:32.051Z,3.92
2022-10-17T02:04:04.962Z,3.50
2022-10-17T02:06:36.271Z,3.17
2022-10-17T02:09:19.980Z,3.70
2022-10-17T02:12:05.355Z,3.85
2022-10-17T02:14:42.957Z,3.75
2022-10-17T02:17:22.452Z,3.65
2022-10-17T02:20:00.195Z,4.25
2022-10-17T02:22:40.120Z,3.80
2022-10-17T02:25:16.057Z,3.88
2022-10-17T02:27:49.761Z,3.60
2022-10-17T02:30:30.777Z,3.83
2022-10-17T02:33:03.202Z,3.40
2022-10-17T02:35:36.144Z,3.83
2022-10-17T02:38:06.239Z,3.47
2022-10-17T02:40:35.965Z,3.72
2022-10-17T02:43:04.405Z,3.70
2022-10-17T02:45:36.157Z,3.47
2022-10-17T02:50:45.628Z,3.40
2022-10-17T02:53:18.833Z,4.15
2022-10-17T02:55:55.812Z,3.60
2022-10-17T02:58:28.808Z,3.40
2022-10-17T03:00:57.433Z,3.80
2022-10-17T03:03:28.550Z,4.07
2022-10-17T03:06:02.798Z,3.65
2022-10-17T03:08:31.116Z,4.05
2022-10-17T03:10:59.430Z,3.90
2022-10-17T03:13:30.646Z,3.83
2022-10-17T03:15:59.401Z,4.28
2022-10-17T03:18:28.233Z,4.00
2022-10-17T03:21:02.489Z,3.75
2022-10-17T03:23:30.773Z,3.88
2022-10-17T03:25:59.491Z,3.83
2022-10-17T03:28:28.546Z,4.25
2022-10-17T03:30:56.899Z,4.13
2022-10-17T03:33:25.296Z,3.70
2022-10-17T03:35:53.614Z,3.90
2022-10-17T03:38:23.669Z,4.07
2022-10-17T03:40:56.895Z,3.75
2022-10-17T03:43:25.456Z,4.43
2022-10-17T03:45:53.844Z,4.70
2022-10-17T03:48:22.223Z,3.97
2022-10-17T03:50:50.961Z,3.72
2022-10-17T03:53:19.358Z,4.13
2022-10-17T03:55:49.141Z,3.83
2022-10-17T03:58:17.508Z,4.03
2022-10-17T04:00:46.302Z,3.88
2022-10-17T04:03:17.229Z,4.22
2022-10-17T04:05:46.087Z,4.07
2022-10-17T04:08:14.491Z,7.30
2022-10-17T04:11:04.099Z,3.72
2022-10-17T04:13:33.610Z,4.63
2022-10-17T04:16:03.763Z,5.35
2022-10-17T04:18:32.696Z,3.92
2022-10-17T04:21:03.019Z,3.70
2022-10-17T04:23:32.839Z,4.22
2022-10-17T04:26:11.404Z,4.00
2022-10-17T04:31:15.412Z,4.68
2022-10-17T04:34:03.654Z,4.78
2022-10-17T04:36:32.015Z,4.10
2022-10-17T04:39:02.986Z,4.32
2022-10-17T04:41:33.584Z,3.92
2022-10-17T04:44:02.802Z,3.90
2022-10-17T04:46:35.455Z,4.07
2022-10-17T04:49:03.802Z,4.25
2022-10-17T04:51:32.191Z,4.28
2022-10-17T04:54:26.747Z,4.53
2022-10-17T04:57:02.954Z,4.60
2022-10-17T04:59:31.647Z,4.20
2022-10-17T05:02:23.280Z,4.25
2022-10-17T05:04:52.286Z,4.25
2022-10-17T05:07:22.105Z,5.13
2022-10-17T05:09:53.172Z,4.38
2022-10-17T05:12:24.092Z,4.47
2022-10-17T05:14:52.561Z,5.22
2022-10-17T05:17:21.058Z,4.68
2022-10-17T05:19:50.182Z,4.45
2022-10-17T05:22:19.134Z,4.50
2022-10-17T05:24:47.575Z,4.60
2022-10-17T05:27:15.854Z,4.40
2022-10-17T05:29:45.806Z,4.65
2022-10-17T05:32:26.356Z,4.45
2022-10-17T05:34:54.833Z,4.50
2022-10-17T05:37:24.923Z,5.30
2022-10-17T05:39:56.568Z,4.25
2022-10-17T05:42:26.203Z,4.28
2022-10-17T05:44:56.071Z,4.35
2022-10-17T05:47:24.400Z,4.47
2022-10-17T05:49:52.805Z,4.40
2022-10-17T05:52:31.058Z,4.97
2022-10-17T05:55:17.846Z,4.53
2022-10-17T05:57:46.351Z,4.28
2022-10-17T06:00:20.239Z,4.28
2022-10-17T06:02:56.008Z,4.88
2022-10-17T06:05:25.815Z,4.57
2022-10-17T06:07:58.256Z,4.80
2022-10-17T06:10:30.942Z,4.60
2022-10-17T06:13:00.483Z,5.13
2022-10-17T06:15:33.530Z,6.88
2022-10-17T06:18:06.757Z,6.55
2022-10-17T06:20:35.178Z,5.10
2022-10-17T06:23:04.213Z,4.47
2022-10-17T06:25:49.468Z,4.70
2022-10-17T06:28:18.127Z,4.95
2022-10-17T06:30:48.714Z,4.80
2022-10-17T06:33:18.133Z,4.47
2022-10-17T06:35:52.619Z,4.78
2022-10-17T06:38:22.267Z,6.18
2022-10-17T06:40:54.154Z,4.90
2022-10-17T06:43:27.688Z,4.93
2022-10-17T06:46:23.906Z,5.20
2022-10-17T06:49:08.330Z,4.28
2022-10-17T06:51:56.915Z,5.22
2022-10-17T06:54:35.083Z,6.60
2022-10-17T06:57:12.162Z,5.88
2022-10-17T07:00:01.663Z,5.13
2022-10-17T07:02:41.053Z,4.43
2022-10-17T07:05:09.753Z,4.75
2022-10-17T07:07:40.179Z,4.65
2022-10-17T07:10:11.636Z,5.13
2022-10-17T07:12:41.341Z,5.88
2022-10-17T07:15:10.582Z,5.07
2022-10-17T07:17:40.260Z,4.55
2022-10-17T07:20:09.895Z,4.85
2022-10-17T07:22:40.107Z,4.45
2022-10-17T07:25:10.375Z,4.97
2022-10-17T07:27:45.567Z,4.47
2022-10-17T07:30:14.820Z,5.18
2022-10-17T07:32:55.862Z,4.30
2022-10-17T07:35:24.271Z,4.90
2022-10-17T07:37:53.043Z,4.63
2022-10-17T07:40:22.700Z,4.80
2022-10-17T07:42:51.394Z,5.07
2022-10-17T07:45:20.408Z,4.60
2022-10-17T07:47:48.858Z,4.78
2022-10-17T07:50:19.719Z,5.18
2022-10-17T07:52:47.988Z,4.60
2022-10-17T07:55:16.512Z,5.35
2022-10-17T07:57:44.953Z,4.97
2022-10-17T08:00:13.816Z,5.43
2022-10-17T08:02:43.673Z,5.13
2022-10-17T08:05:11.978Z,4.85
2022-10-17T08:07:41.945Z,5.10
2022-10-17T08:10:12.712Z,4.53
2022-10-17T08:12:41.116Z,5.30
2022-10-17T08:15:10.976Z,6.22
2022-10-17T08:17:40.091Z,5.88
2022-10-17T08:20:08.942Z,5.63
2022-10-17T08:22:37.312Z,6.32
2022-10-17T08:25:08.327Z,4.90
2022-10-17T08:27:37.063Z,6.50
2022-10-17T08:30:06.039Z,7.18
2022-10-17T08:32:34.253Z,7.10
2022-10-17T08:35:02.603Z,6.90
2022-10-17T08:37:32.778Z,7.78
2022-10-17T08:40:01.482Z,6.00
2022-10-17T08:43:00.002Z,5.93
2022-10-17T08:45:34.062Z,6.05
2022-10-17T08:48:04.332Z,6.25
2022-10-17T08:50:44.193Z,5.95
2022-10-17T08:53:18.823Z,5.25
2022-10-17T08:55:49.348Z,6.40
2022-10-17T08:58:22.646Z,5.72
2022-10-17T09:00:59.346Z,6.07
2022-10-17T09:03:39.932Z,5.95
2022-10-17T09:06:19.567Z,5.93
2022-10-17T09:08:59.987Z,7.40
2022-10-17T09:11:44.746Z,5.90
2022-10-17T09:14:28.664Z,6.47
2022-10-17T09:17:09.024Z,6.10
2022-10-17T09:19:40.564Z,5.95
2022-10-17T09:22:14.479Z,5.93
2022-10-17T09:24:46.489Z,7.07
2022-10-17T09:27:25.362Z,6.57
2022-10-17T09:30:21.379Z,7.30
2022-10-17T09:33:00.650Z,7.45
2022-10-17T09:35:33.251Z,9.82
2022-10-17T09:38:01.607Z,8.80
2022-10-17T09:40:34.243Z,7.72
2022-10-17T09:43:06.499Z,7.20
2022-10-17T09:45:47.034Z,6.85
2022-10-17T09:48:24.234Z,7.13
2022-10-17T09:51:02.622Z,6.82
2022-10-17T09:53:44.368Z,6.50
2022-10-17T09:56:16.318Z,7.30
2022-10-17T09:58:45.844Z,6.50
2022-10-17T10:01:24.073Z,5.93
2022-10-17T10:04:14.173Z,6.57
2022-10-17T10:07:13.780Z,6.60
2022-10-17T10:09:49.120Z,6.68
2022-10-17T10:12:20.713Z,6.95
2022-10-17T10:14:53.424Z,6.70
2022-10-17T10:17:36.541Z,6.47
2022-10-17T10:20:21.409Z,7.07
2022-10-17T10:23:06.783Z,6.80
2022-10-17T10:25:36.826Z,6.40
2022-10-17T10:28:12.266Z,7.03
2022-10-17T10:30:49.598Z,7.07
2022-10-17T10:33:37.521Z,6.78
2022-10-17T10:36:09.488Z,10.77
2022-10-17T10:38:43.450Z,7.60
2022-10-17T10:41:12.759Z,6.60
2022-10-17T10:43:44.426Z,6.72
2022-10-17T10:46:20.795Z,7.20
2022-10-17T10:48:58.629Z,7.30
2022-10-17T10:51:33.711Z,7.22
2022-10-17T10:54:10.139Z,7.13
2022-10-17T10:56:41.828Z,6.95
2022-10-17T10:59:19.674Z,7.43
2022-10-17T11:01:53.366Z,7.63
2022-10-17T11:04:31.352Z,8.40
2022-10-17T11:07:05.626Z,7.15
2022-10-17T11:09:46.163Z,7.35
2022-10-17T11:12:19.726Z,7.40
2022-10-17T11:17:29.555Z,6.93
2022-10-17T11:20:08.545Z,7.22
2022-10-17T11:22:42.948Z,7.22
2022-10-17T11:25:30.447Z,6.85
2022-10-17T11:30:47.590Z,7.35
2022-10-17T11:33:21.567Z,7.68
2022-10-17T11:35:54.577Z,7.15
2022-10-17T11:38:29.946Z,7.15
2022-10-17T11:41:00.777Z,7.72
2022-10-17T11:43:33.624Z,7.53
2022-10-17T11:46:12.110Z,7.00
2022-10-17T11:48:44.076Z,9.15
2022-10-17T11:54:12.160Z,7.65
2022-10-17T11:56:47.648Z,7.70
2022-10-17T11:59:41.232Z,8.55
2022-10-17T12:02:16.178Z,8.05
2022-10-17T12:04:54.802Z,8.40
2022-10-17T12:07:34.892Z,7.45
2022-10-17T12:10:18.014Z,7.68
2022-10-17T12:12:49.506Z,7.70
2022-10-17T12:15:32.326Z,7.32
2022-10-17T12:18:03.093Z,7.97
2022-10-17T12:20:35.405Z,7.68
2022-10-17T12:23:20.343Z,8.45
2022-10-17T12:25:55.908Z,7.90
2022-10-17T12:28:31.277Z,8.25
2022-10-17T12:31:02.770Z,8.40
2022-10-17T12:33:36.931Z,8.55
2022-10-17T12:36:50.000Z,8.27
2022-10-17T12:39:52.931Z,12.88
2022-10-17T12:42:52.517Z,10.93
2022-10-17T12:45:49.469Z,8.77
2022-10-17T12:48:55.033Z,9.00
2022-10-17T12:51:40.714Z,8.23
2022-10-17T12:54:13.821Z,7.93
2022-10-17T12:56:45.681Z,8.02
2022-10-17T12:59:18.076Z,8.63
2022-10-17T13:01:49.478Z,8.07
2022-10-17T13:04:18.884Z,8.05
2022-10-17T13:06:50.421Z,9.00
2022-10-17T13:09:25.709Z,7.95
2022-10-17T13:11:58.672Z,8.57
2022-10-17T13:14:27.861Z,9.10
2022-10-17T13:16:59.876Z,9.10
2022-10-17T13:19:31.618Z,9.18
2022-10-17T13:22:06.421Z,8.35
2022-10-17T13:24:38.191Z,8.45
2022-10-17T13:27:25.147Z,9.50
2022-10-17T13:29:53.466Z,9.25
2022-10-17T13:32:21.885Z,8.77
2022-10-17T13:35:09.399Z,9.27
2022-10-17T13:37:41.445Z,8.40
2022-10-17T13:40:43.966Z,8.40
2022-10-17T13:43:17.750Z,8.77
2022-10-17T13:45:51.742Z,8.63
2022-10-17T13:48:24.100Z,8.98
2022-10-17T13:50:56.367Z,9.13
2022-10-17T13:53:31.082Z,9.80
2022-10-17T13:56:26.843Z,9.05
2022-10-17T13:58:56.392Z,9.15
2022-10-17T14:01:27.838Z,8.95
2022-10-17T14:04:08.263Z,9.20
2022-10-17T14:06:45.104Z,14.73
2022-10-17T14:09:22.642Z,9.48
2022-10-17T14:12:01.362Z,9.13
2022-10-17T14:14:51.629Z,8.55
2022-10-17T14:17:26.083Z,8.88
2022-10-17T14:20:26.654Z,8.60
2022-10-17T14:23:04.523Z,8.70
2022-10-17T14:25:43.369Z,8.70
2022-10-17T14:28:16.215Z,8.43
2022-10-17T14:31:02.948Z,8.95
2022-10-17T14:33:33.827Z,20.08
2022-10-17T14:36:05.540Z,9.20
2022-10-17T14:38:36.535Z,8.68
2022-10-17T14:44:02.262Z,9.35
2022-10-17T14:46:36.121Z,9.02
2022-10-17T14:49:10.079Z,9.18
2022-10-17T14:51:50.405Z,12.77
2022-10-17T14:54:30.375Z,28.63
2022-10-17T14:56:58.988Z,8.75
2022-10-17T14:59:52.958Z,9.40
2022-10-17T15:02:17.863Z,8.80
2022-10-17T15:04:46.872Z,8.73
2022-10-17T15:07:17.094Z,8.90
2022-10-17T15:09:49.046Z,9.27
2022-10-17T15:12:19.147Z,8.88
2022-10-17T15:14:57.742Z,8.52
2022-10-17T15:17:32.720Z,9.40
2022-10-17T15:22:31.964Z,9.02
2022-10-17T15:25:00.472Z,10.80
2022-10-17T15:27:32.846Z,10.98
2022-10-17T15:30:03.420Z,9.40
2022-10-17T15:32:36.397Z,9.38
2022-10-17T15:35:04.945Z,9.73
2022-10-17T15:37:35.894Z,8.75
2022-10-17T15:40:04.724Z,8.95
2022-10-17T15:42:33.380Z,9.30
2022-10-17T15:45:01.748Z,9.00
2022-10-17T15:47:34.508Z,9.43
2022-10-17T15:50:19.651Z,9.75
2022-10-17T15:52:53.720Z,9.52
2022-10-17T15:55:22.304Z,9.07
2022-10-17T15:57:51.793Z,9.65
2022-10-17T16:00:22.584Z,9.30
2022-10-17T16:02:52.730Z,8.68
2022-10-17T16:05:23.743Z,8.93
2022-10-17T16:07:52.536Z,8.95
2022-10-17T16:10:22.027Z,8.57
2022-10-17T16:12:51.838Z,8.30
2022-10-17T16:15:23.694Z,9.25
2022-10-17T16:17:55.412Z,8.15
2022-10-17T16:20:24.686Z,8.88
2022-10-17T16:22:59.999Z,9.95
2022-10-17T16:25:35.536Z,8.60
2022-10-17T16:28:14.050Z,8.73
2022-10-17T16:30:46.435Z,8.75
2022-10-17T16:33:18.938Z,8.85
2022-10-17T16:35:49.410Z,8.73
2022-10-17T16:38:19.462Z,9.20
2022-10-17T16:40:48.029Z,8.95
2022-10-17T16:43:17.383Z,9.38
2022-10-17T16:45:47.598Z,11.27
2022-10-17T16:48:17.904Z,21.13
2022-10-17T16:51:05.432Z,9.32
2022-10-17T16:53:46.152Z,8.65
2022-10-17T16:56:18.034Z,8.95
2022-10-17T16:58:50.203Z,8.27
2022-10-17T17:01:28.043Z,9.70
2022-10-17T17:03:58.594Z,9.18
2022-10-17T17:06:29.307Z,9.02
2022-10-17T17:08:58.919Z,8.73
2022-10-17T17:11:29.275Z,9.52
2022-10-17T17:13:58.902Z,9.00
2022-10-17T17:16:28.656Z,8.75
2022-10-17T17:18:59.771Z,11.07
2022-10-17T17:21:31.746Z,9.05
2022-10-17T17:24:01.384Z,9.60
2022-10-17T17:26:33.393Z,9.95
2022-10-17T17:29:02.316Z,9.85
2022-10-17T17:31:33.071Z,16.00
2022-10-17T17:34:06.663Z,9.38
2022-10-17T17:36:39.369Z,9.27
2022-10-17T17:39:09.856Z,9.57
2022-10-17T17:41:38.305Z,9.20
2022-10-17T17:44:10.158Z,10.27
2022-10-17T17:46:41.104Z,9.25
2022-10-17T17:49:12.044Z,8.82
2022-10-17T17:51:43.388Z,9.38
2022-10-17T17:54:15.318Z,9.75
2022-10-17T17:56:47.341Z,9.27
2022-10-17T17:59:18.894Z,8.85
2022-10-17T18:01:50.468Z,9.50
2022-10-17T18:04:35.078Z,9.13
2022-10-17T18:07:06.660Z,9.27
2022-10-17T18:09:39.298Z,13.38
2022-10-17T18:12:07.898Z,12.38
2022-10-17T18:14:36.492Z,11.18
2022-10-17T18:17:05.062Z,9.02
2022-10-17T18:19:35.130Z,9.38
2022-10-17T18:22:04.312Z,9.38
2022-10-17T18:24:39.587Z,9.75
2022-10-17T18:27:09.369Z,8.57
2022-10-17T18:29:37.980Z,9.40
2022-10-17T18:32:12.450Z,9.60
2022-10-17T18:34:43.796Z,9.88
2022-10-17T18:37:13.427Z,9.70
2022-10-17T18:39:41.863Z,9.27
2022-10-17T18:42:11.992Z,8.65
2022-10-17T18:44:42.489Z,9.10
2022-10-17T18:47:14.882Z,8.55
2022-10-17T18:49:45.308Z,9.32
2022-10-17T18:52:14.537Z,9.48
2022-10-17T18:54:44.854Z,9.40
2022-10-17T18:57:14.924Z,9.57
2022-10-17T18:59:43.254Z,8.68
2022-10-17T19:02:13.919Z,8.32
2022-10-17T19:04:46.664Z,8.77
2022-10-17T19:07:20.480Z,8.38
2022-10-17T19:09:50.716Z,8.73
2022-10-17T19:12:26.458Z,8.77
2022-10-17T19:15:10.091Z,8.73
2022-10-17T19:17:39.702Z,8.60
2022-10-17T19:20:15.322Z,8.70
2022-10-17T19:22:44.049Z,8.45
2022-10-17T19:25:15.155Z,8.40
2022-10-17T19:27:45.334Z,8.75
2022-10-17T19:30:15.827Z,8.52
2022-10-17T19:32:50.205Z,8.48
2022-10-17T19:35:20.286Z,8.52
2022-10-17T19:37:51.391Z,9.45
2022-10-17T19:40:22.069Z,18.55
2022-10-17T19:42:52.186Z,8.70
2022-10-17T19:45:20.678Z,8.30
2022-10-17T19:47:49.389Z,8.43
2022-10-17T19:50:19.614Z,9.45
2022-10-17T19:52:47.988Z,8.55
2022-10-17T19:55:17.436Z,8.85
2022-10-17T19:57:46.620Z,8.60
2022-10-17T20:00:17.676Z,8.93
2022-10-17T20:02:52.271Z,8.50
2022-10-17T20:05:27.297Z,9.18
2022-10-17T20:08:00.950Z,8.40
2022-10-17T20:10:30.150Z,8.23
2022-10-17T20:13:03.451Z,8.25
2022-10-17T20:15:39.455Z,8.82
2022-10-17T20:18:08.822Z,8.77
2022-10-17T20:20:40.521Z,8.27
2022-10-17T20:23:17.572Z,8.10
2022-10-17T20:25:47.509Z,8.25
2022-10-17T20:28:18.155Z,9.13
2022-10-17T20:30:47.907Z,8.45
2022-10-17T20:33:18.847Z,8.52
2022-10-17T20:35:51.363Z,8.82
2022-10-17T20:38:20.016Z,8.05
2022-10-17T20:40:48.451Z,8.18
2022-10-17T20:43:16.820Z,8.43
2022-10-17T20:45:51.549Z,8.43
2022-10-17T20:48:23.918Z,8.45
2022-10-17T20:50:57.871Z,8.98
2022-10-17T20:53:42.801Z,9.05
2022-10-17T20:56:23.149Z,8.35
2022-10-17T20:58:53.384Z,8.52
2022-10-17T21:01:25.434Z,7.95
2022-10-17T21:03:54.583Z,7.82
2022-10-17T21:06:27.851Z,8.75
2022-10-17T21:09:05.213Z,8.80
2022-10-17T21:12:02.629Z,8.13
2022-10-17T21:14:30.946Z,8.60
2022-10-17T21:17:04.489Z,7.57
2022-10-17T21:19:33.806Z,7.82
2022-10-17T21:22:03.603Z,8.00
2022-10-17T21:24:32.626Z,7.70
2022-10-17T21:27:01.109Z,8.52
2022-10-17T21:29:29.368Z,7.60
2022-10-17T21:31:57.651Z,7.90
2022-10-17T21:34:26.060Z,7.68
2022-10-17T21:36:54.337Z,7.47
2022-10-17T21:39:24.970Z,7.63
2022-10-17T21:41:54.653Z,7.25
2022-10-17T21:44:26.074Z,7.65
2022-10-17T21:46:58.408Z,7.13
2022-10-17T21:49:27.182Z,7.30
2022-10-17T21:51:55.536Z,6.85
2022-10-17T21:54:25.384Z,6.93
2022-10-17T21:56:56.539Z,6.57
2022-10-17T21:59:25.120Z,6.90
2022-10-17T22:01:53.517Z,7.30
2022-10-17T22:04:21.868Z,6.50
2022-10-17T22:06:59.955Z,6.50
2022-10-17T22:09:32.036Z,6.32
2022-10-17T22:12:00.442Z,6.65
2022-10-17T22:14:29.135Z,6.13
2022-10-17T22:16:59.002Z,6.90
2022-10-17T22:19:28.183Z,6.18
2022-10-17T22:21:56.926Z,6.20
2022-10-17T22:24:25.881Z,6.15
2022-10-17T22:26:55.882Z,5.93
2022-10-17T22:29:24.289Z,5.75
2022-10-17T22:31:52.992Z,6.15
2022-10-17T22:34:22.176Z,6.40
2022-10-17T22:36:51.865Z,6.65
2022-10-17T22:39:20.436Z,6.03
2022-10-17T22:41:50.237Z,5.65
2022-10-17T22:44:19.965Z,5.70
2022-10-17T22:46:48.213Z,5.13
2022-10-17T22:49:16.659Z,5.63
2022-10-17T22:51:45.176Z,5.60
2022-10-17T22:54:13.437Z,5.07
2022-10-17T22:56:42.780Z,5.20
2022-10-17T22:59:12.295Z,5.00
2022-10-17T23:01:44.193Z,4.70
2022-10-17T23:04:12.590Z,5.30
2022-10-17T23:06:41.120Z,4.72
2022-10-17T23:09:11.107Z,5.68
2022-10-17T23:11:41.796Z,4.70
2022-10-17T23:14:10.462Z,4.80
2022-10-17T23:16:38.767Z,5.00
2022-10-17T23:19:08.758Z,5.00
2022-10-17T23:21:37.028Z,5.15
2022-10-17T23:24:06.130Z,5.00
2022-10-17T23:26:34.392Z,5.18
2022-10-17T23:29:02.834Z,5.30
2022-10-17T23:31:31.153Z,5.18
2022-10-17T23:34:00.102Z,5.40
2022-10-17T23:36:29.862Z,4.57
2022-10-17T23:38:58.692Z,5.10
2022-10-17T23:41:28.099Z,4.32
2022-10-17T23:43:56.550Z,5.00
2022-10-17T23:46:24.848Z,4.70
2022-10-17T23:48:53.203Z,4.82
2022-10-17T23:51:22.288Z,4.50
2022-10-17T23:53:51.982Z,4.60
2022-10-17T23:56:20.325Z,4.78
2022-10-17T23:58:48.575Z,4.65
